sensor_id;sensor_type;location;lat;lon;timestamp;pressure;altitude;pressure_sealevel;temperature;humidity
59194;BME280;44967;48.598;15.650;2023-06-24T00:01:35;98614.44;;;18.45;61.88
59194;BME280;44967;48.598;15.650;2023-06-24T00:04:03;98618.22;;;18.41;62.18
59194;BME280;44967;48.598;15.650;2023-06-24T00:06:29;98622.91;;;18.22;63.34
59194;BME280;44967;48.598;15.650;2023-06-24T00:08:55;98627.03;;;18.12;63.72
59194;BME280;44967;48.598;15.650;2023-06-24T00:11:29;98617.97;;;18.14;63.80
59194;BME280;44967;48.598;15.650;2023-06-24T00:13:55;98619.63;;;18.17;63.66
59194;BME280;44967;48.598;15.650;2023-06-24T00:16:21;98614.44;;;18.14;63.76
59194;BME280;44967;48.598;15.650;2023-06-24T00:18:56;98613.66;;;18.12;64.20
59194;BME280;44967;48.598;15.650;2023-06-24T00:21:24;98615.09;;;18.02;64.18
59194;BME280;44967;48.598;15.650;2023-06-24T00:23:56;98612.97;;;17.93;64.87
59194;BME280;44967;48.598;15.650;2023-06-24T00:26:22;98608.56;;;17.92;64.78
59194;BME280;44967;48.598;15.650;2023-06-24T00:28:47;98606.47;;;17.81;65.83
59194;BME280;44967;48.598;15.650;2023-06-24T00:31:13;98603.88;;;17.79;65.80
59194;BME280;44967;48.598;15.650;2023-06-24T00:33:39;98598.00;;;17.73;66.40
59194;BME280;44967;48.598;15.650;2023-06-24T00:36:04;98602.31;;;17.75;66.47
59194;BME280;44967;48.598;15.650;2023-06-24T00:38:32;98596.66;;;17.81;66.42
59194;BME280;44967;48.598;15.650;2023-06-24T00:40:58;98588.72;;;17.80;66.54
59194;BME280;44967;48.598;15.650;2023-06-24T00:43:24;98587.31;;;17.73;66.48
59194;BME280;44967;48.598;15.650;2023-06-24T00:45:51;98590.06;;;17.71;66.71
59194;BME280;44967;48.598;15.650;2023-06-24T00:48:19;98594.03;;;17.64;66.95
59194;BME280;44967;48.598;15.650;2023-06-24T00:50:45;98590.94;;;17.55;67.54
59194;BME280;44967;48.598;15.650;2023-06-24T00:53:11;98591.03;;;17.53;67.70
59194;BME280;44967;48.598;15.650;2023-06-24T00:55:37;98586.47;;;17.55;67.54
59194;BME280;44967;48.598;15.650;2023-06-24T00:58:03;98592.75;;;17.54;67.91
59194;BME280;44967;48.598;15.650;2023-06-24T01:00:29;98590.66;;;17.61;67.36
59194;BME280;44967;48.598;15.650;2023-06-24T01:02:58;98583.88;;;17.54;68.11
59194;BME280;44967;48.598;15.650;2023-06-24T01:05:24;98585.06;;;17.48;67.80
59194;BME280;44967;48.598;15.650;2023-06-24T01:07:51;98586.00;;;17.47;68.07
59194;BME280;44967;48.598;15.650;2023-06-24T01:10:22;98591.13;;;17.34;68.57
59194;BME280;44967;48.598;15.650;2023-06-24T01:12:49;98578.75;;;17.33;68.49
59194;BME280;44967;48.598;15.650;2023-06-24T01:15:15;98584.09;;;17.33;68.78
59194;BME280;44967;48.598;15.650;2023-06-24T01:17:59;98578.66;;;17.35;68.60
59194;BME280;44967;48.598;15.650;2023-06-24T01:26:21;98591.19;;;17.17;69.37
59194;BME280;44967;48.598;15.650;2023-06-24T01:29:15;98590.06;;;17.21;69.33
59194;BME280;44967;48.598;15.650;2023-06-24T01:31:59;98585.59;;;17.22;69.34
59194;BME280;44967;48.598;15.650;2023-06-24T01:34:44;98599.88;;;17.21;69.41
59194;BME280;44967;48.598;15.650;2023-06-24T01:38:06;98601.06;;;17.15;69.64
59194;BME280;44967;48.598;15.650;2023-06-24T01:40:26;98606.00;;;17.23;69.76
59194;BME280;44967;48.598;15.650;2023-06-24T01:42:52;98604.13;;;17.25;69.19
59194;BME280;44967;48.598;15.650;2023-06-24T01:45:24;98606.41;;;17.15;70.00
59194;BME280;44967;48.598;15.650;2023-06-24T01:48:03;98611.91;;;17.12;70.02
59194;BME280;44967;48.598;15.650;2023-06-24T01:50:33;98616.53;;;17.09;70.45
59194;BME280;44967;48.598;15.650;2023-06-24T01:53:04;98621.19;;;17.22;70.06
59194;BME280;44967;48.598;15.650;2023-06-24T01:55:32;98618.88;;;17.15;70.19
59194;BME280;44967;48.598;15.650;2023-06-24T01:57:59;98622.22;;;17.03;70.50
59194;BME280;44967;48.598;15.650;2023-06-24T02:00:28;98616.63;;;17.07;70.73
59194;BME280;44967;48.598;15.650;2023-06-24T02:02:55;98613.06;;;17.07;70.54
59194;BME280;44967;48.598;15.650;2023-06-24T02:05:21;98609.56;;;17.06;70.74
59194;BME280;44967;48.598;15.650;2023-06-24T02:07:48;98612.94;;;17.10;70.84
59194;BME280;44967;48.598;15.650;2023-06-24T02:10:15;98609.94;;;17.16;70.46
59194;BME280;44967;48.598;15.650;2023-06-24T02:12:44;98607.72;;;17.07;70.96
59194;BME280;44967;48.598;15.650;2023-06-24T02:15:12;98614.34;;;17.00;70.72
59194;BME280;44967;48.598;15.650;2023-06-24T02:17:38;98610.34;;;17.08;71.08
59194;BME280;44967;48.598;15.650;2023-06-24T02:20:06;98616.25;;;16.98;71.26
59194;BME280;44967;48.598;15.650;2023-06-24T02:22:38;98606.31;;;17.00;71.33
59194;BME280;44967;48.598;15.650;2023-06-24T02:25:06;98605.31;;;17.02;71.50
59194;BME280;44967;48.598;15.650;2023-06-24T02:27:35;98601.94;;;16.99;71.57
59194;BME280;44967;48.598;15.650;2023-06-24T02:30:03;98615.31;;;16.99;71.63
59194;BME280;44967;48.598;15.650;2023-06-24T02:32:29;98622.84;;;16.90;72.01
59194;BME280;44967;48.598;15.650;2023-06-24T02:34:54;98617.50;;;16.90;72.13
59194;BME280;44967;48.598;15.650;2023-06-24T02:37:20;98615.06;;;16.86;72.31
59194;BME280;44967;48.598;15.650;2023-06-24T02:39:46;98618.28;;;16.92;72.21
59194;BME280;44967;48.598;15.650;2023-06-24T02:42:11;98620.16;;;16.90;72.21
59194;BME280;44967;48.598;15.650;2023-06-24T02:44:39;98612.44;;;16.84;72.33
59194;BME280;44967;48.598;15.650;2023-06-24T02:47:09;98615.94;;;16.86;72.56
59194;BME280;44967;48.598;15.650;2023-06-24T02:49:37;98630.22;;;16.85;72.57
59194;BME280;44967;48.598;15.650;2023-06-24T02:52:05;98645.44;;;17.01;71.70
59194;BME280;44967;48.598;15.650;2023-06-24T02:54:32;98634.94;;;16.98;71.66
59194;BME280;44967;48.598;15.650;2023-06-24T02:57:01;98641.13;;;16.98;72.06
59194;BME280;44967;48.598;15.650;2023-06-24T02:59:27;98634.13;;;16.95;72.11
59194;BME280;44967;48.598;15.650;2023-06-24T03:01:53;98639.41;;;16.97;72.08
59194;BME280;44967;48.598;15.650;2023-06-24T03:04:19;98640.72;;;16.88;72.59
59194;BME280;44967;48.598;15.650;2023-06-24T03:06:46;98648.25;;;16.80;72.37
59194;BME280;44967;48.598;15.650;2023-06-24T03:09:13;98640.09;;;16.83;72.81
59194;BME280;44967;48.598;15.650;2023-06-24T03:11:41;98646.50;;;16.79;72.79
59194;BME280;44967;48.598;15.650;2023-06-24T03:14:08;98642.47;;;16.89;72.22
59194;BME280;44967;48.598;15.650;2023-06-24T03:16:33;98642.63;;;16.86;72.42
59194;BME280;44967;48.598;15.650;2023-06-24T03:19:00;98649.56;;;16.72;73.12
59194;BME280;44967;48.598;15.650;2023-06-24T03:21:26;98653.59;;;16.80;73.16
59194;BME280;44967;48.598;15.650;2023-06-24T03:23:54;98653.75;;;16.77;72.88
59194;BME280;44967;48.598;15.650;2023-06-24T03:26:20;98657.34;;;16.76;73.21
59194;BME280;44967;48.598;15.650;2023-06-24T03:28:46;98646.50;;;16.79;73.13
59194;BME280;44967;48.598;15.650;2023-06-24T03:31:11;98645.03;;;16.74;73.06
59194;BME280;44967;48.598;15.650;2023-06-24T03:33:40;98656.25;;;16.80;72.96
59194;BME280;44967;48.598;15.650;2023-06-24T03:36:10;98650.59;;;16.69;73.12
59194;BME280;44967;48.598;15.650;2023-06-24T03:38:36;98658.16;;;16.60;73.56
59194;BME280;44967;48.598;15.650;2023-06-24T03:41:02;98665.09;;;16.64;73.60
59194;BME280;44967;48.598;15.650;2023-06-24T03:43:27;98671.00;;;16.70;73.43
59194;BME280;44967;48.598;15.650;2023-06-24T03:45:53;98666.88;;;16.63;73.37
59194;BME280;44967;48.598;15.650;2023-06-24T03:48:20;98669.06;;;16.74;72.89
59194;BME280;44967;48.598;15.650;2023-06-24T03:50:49;98669.34;;;16.68;73.11
59194;BME280;44967;48.598;15.650;2023-06-24T03:53:14;98670.69;;;16.59;73.62
59194;BME280;44967;48.598;15.650;2023-06-24T03:55:40;98671.22;;;16.66;73.57
59194;BME280;44967;48.598;15.650;2023-06-24T03:58:05;98674.28;;;16.75;73.41
59194;BME280;44967;48.598;15.650;2023-06-24T04:00:31;98681.75;;;16.69;73.69
59194;BME280;44967;48.598;15.650;2023-06-24T04:02:58;98686.88;;;16.73;73.84
59194;BME280;44967;48.598;15.650;2023-06-24T04:05:26;98678.53;;;16.79;73.44
59194;BME280;44967;48.598;15.650;2023-06-24T04:07:52;98680.44;;;16.77;73.38
59194;BME280;44967;48.598;15.650;2023-06-24T04:10:19;98683.56;;;16.49;73.87
59194;BME280;44967;48.598;15.650;2023-06-24T04:12:45;98689.97;;;16.64;73.53
59194;BME280;44967;48.598;15.650;2023-06-24T04:15:11;98692.41;;;16.69;73.33
59194;BME280;44967;48.598;15.650;2023-06-24T04:17:37;98693.19;;;16.52;73.80
59194;BME280;44967;48.598;15.650;2023-06-24T04:20:03;98685.19;;;16.52;73.64
59194;BME280;44967;48.598;15.650;2023-06-24T04:22:37;98687.09;;;16.50;73.92
59194;BME280;44967;48.598;15.650;2023-06-24T04:25:04;98691.63;;;16.48;73.93
59194;BME280;44967;48.598;15.650;2023-06-24T04:27:32;98699.63;;;16.48;73.41
59194;BME280;44967;48.598;15.650;2023-06-24T04:29:59;98700.78;;;16.42;73.37
59194;BME280;44967;48.598;15.650;2023-06-24T04:32:25;98699.78;;;16.45;73.36
59194;BME280;44967;48.598;15.650;2023-06-24T04:34:50;98703.25;;;16.47;73.22
59194;BME280;44967;48.598;15.650;2023-06-24T04:37:17;98704.91;;;16.49;72.97
59194;BME280;44967;48.598;15.650;2023-06-24T04:39:45;98710.44;;;16.45;73.18
59194;BME280;44967;48.598;15.650;2023-06-24T04:42:11;98706.84;;;16.46;72.79
59194;BME280;44967;48.598;15.650;2023-06-24T04:44:37;98721.53;;;16.36;73.26
59194;BME280;44967;48.598;15.650;2023-06-24T04:47:03;98721.69;;;16.33;73.77
59194;BME280;44967;48.598;15.650;2023-06-24T04:49:28;98714.75;;;16.47;73.13
59194;BME280;44967;48.598;15.650;2023-06-24T04:51:54;98715.22;;;16.57;73.03
59194;BME280;44967;48.598;15.650;2023-06-24T04:54:20;98714.34;;;16.38;73.33
59194;BME280;44967;48.598;15.650;2023-06-24T04:56:45;98731.94;;;16.42;73.32
59194;BME280;44967;48.598;15.650;2023-06-24T04:59:14;98730.34;;;16.38;73.25
59194;BME280;44967;48.598;15.650;2023-06-24T05:01:40;98733.78;;;16.40;73.32
59194;BME280;44967;48.598;15.650;2023-06-24T05:04:05;98735.94;;;16.32;73.50
59194;BME280;44967;48.598;15.650;2023-06-24T05:06:31;98736.59;;;16.37;73.34
59194;BME280;44967;48.598;15.650;2023-06-24T05:08:57;98734.91;;;16.55;72.85
59194;BME280;44967;48.598;15.650;2023-06-24T05:11:22;98734.25;;;16.49;73.07
59194;BME280;44967;48.598;15.650;2023-06-24T05:13:48;98731.94;;;16.42;73.67
59194;BME280;44967;48.598;15.650;2023-06-24T05:16:14;98740.44;;;16.31;74.47
59194;BME280;44967;48.598;15.650;2023-06-24T05:18:39;98749.16;;;16.35;74.86
59194;BME280;44967;48.598;15.650;2023-06-24T05:21:05;98753.69;;;16.33;75.43
59194;BME280;44967;48.598;15.650;2023-06-24T05:23:31;98744.81;;;16.14;76.08
59194;BME280;44967;48.598;15.650;2023-06-24T05:25:56;98753.03;;;16.28;75.35
59194;BME280;44967;48.598;15.650;2023-06-24T05:28:22;98757.44;;;16.29;75.60
59194;BME280;44967;48.598;15.650;2023-06-24T05:30:48;98756.72;;;16.25;75.68
59194;BME280;44967;48.598;15.650;2023-06-24T05:33:14;98764.50;;;16.30;75.87
59194;BME280;44967;48.598;15.650;2023-06-24T05:35:42;98768.03;;;16.30;76.13
59194;BME280;44967;48.598;15.650;2023-06-24T05:38:08;98766.31;;;16.29;76.32
59194;BME280;44967;48.598;15.650;2023-06-24T05:40:33;98773.53;;;16.27;76.23
59194;BME280;44967;48.598;15.650;2023-06-24T05:42:59;98771.28;;;16.18;76.41
59194;BME280;44967;48.598;15.650;2023-06-24T05:45:26;98783.06;;;16.13;76.04
59194;BME280;44967;48.598;15.650;2023-06-24T05:47:52;98785.28;;;16.23;75.86
59194;BME280;44967;48.598;15.650;2023-06-24T05:50:18;98779.06;;;16.23;76.06
59194;BME280;44967;48.598;15.650;2023-06-24T05:52:43;98786.91;;;16.26;75.91
59194;BME280;44967;48.598;15.650;2023-06-24T05:55:09;98781.94;;;16.18;75.91
59194;BME280;44967;48.598;15.650;2023-06-24T05:57:35;98790.66;;;16.22;75.39
59194;BME280;44967;48.598;15.650;2023-06-24T06:00:00;98799.44;;;16.24;75.08
59194;BME280;44967;48.598;15.650;2023-06-24T06:02:26;98795.09;;;16.41;74.61
59194;BME280;44967;48.598;15.650;2023-06-24T06:04:55;98801.88;;;16.48;73.61
59194;BME280;44967;48.598;15.650;2023-06-24T06:07:20;98803.28;;;16.37;74.18
59194;BME280;44967;48.598;15.650;2023-06-24T06:09:46;98812.94;;;16.39;73.13
59194;BME280;44967;48.598;15.650;2023-06-24T06:12:11;98812.88;;;16.41;73.48
59194;BME280;44967;48.598;15.650;2023-06-24T06:14:37;98817.31;;;16.42;72.94
59194;BME280;44967;48.598;15.650;2023-06-24T06:17:03;98815.72;;;16.38;72.59
59194;BME280;44967;48.598;15.650;2023-06-24T06:19:29;98809.88;;;16.48;72.15
59194;BME280;44967;48.598;15.650;2023-06-24T06:21:55;98813.34;;;16.50;71.66
59194;BME280;44967;48.598;15.650;2023-06-24T06:24:20;98811.13;;;16.60;71.49
59194;BME280;44967;48.598;15.650;2023-06-24T06:26:46;98806.16;;;16.71;71.23
59194;BME280;44967;48.598;15.650;2023-06-24T06:29:12;98802.72;;;16.69;71.22
59194;BME280;44967;48.598;15.650;2023-06-24T06:31:37;98813.75;;;16.80;71.16
59194;BME280;44967;48.598;15.650;2023-06-24T06:34:03;98819.91;;;16.82;71.23
59194;BME280;44967;48.598;15.650;2023-06-24T06:36:29;98804.72;;;17.02;70.58
59194;BME280;44967;48.598;15.650;2023-06-24T06:38:55;98817.75;;;17.08;70.52
59194;BME280;44967;48.598;15.650;2023-06-24T06:41:21;98806.16;;;17.09;69.99
59194;BME280;44967;48.598;15.650;2023-06-24T06:43:53;98802.81;;;17.22;69.72
59194;BME280;44967;48.598;15.650;2023-06-24T06:46:19;98813.00;;;17.14;69.74
59194;BME280;44967;48.598;15.650;2023-06-24T06:48:45;98805.41;;;17.24;69.40
59194;BME280;44967;48.598;15.650;2023-06-24T06:51:13;98815.00;;;17.28;69.00
59194;BME280;44967;48.598;15.650;2023-06-24T06:53:39;98809.09;;;17.21;69.54
59194;BME280;44967;48.598;15.650;2023-06-24T06:56:05;98813.53;;;17.39;69.39
59194;BME280;44967;48.598;15.650;2023-06-24T06:58:30;98815.81;;;17.47;68.96
59194;BME280;44967;48.598;15.650;2023-06-24T07:00:56;98806.84;;;17.48;68.50
59194;BME280;44967;48.598;15.650;2023-06-24T07:03:26;98820.22;;;17.48;68.24
59194;BME280;44967;48.598;15.650;2023-06-24T07:05:53;98808.41;;;17.35;69.01
59194;BME280;44967;48.598;15.650;2023-06-24T07:08:19;98822.66;;;17.53;68.20
59194;BME280;44967;48.598;15.650;2023-06-24T07:10:44;98823.22;;;17.42;68.30
59194;BME280;44967;48.598;15.650;2023-06-24T07:13:10;98812.81;;;17.36;69.03
59194;BME280;44967;48.598;15.650;2023-06-24T07:15:36;98823.28;;;17.40;69.21
59194;BME280;44967;48.598;15.650;2023-06-24T07:18:01;98823.91;;;17.46;68.88
59194;BME280;44967;48.598;15.650;2023-06-24T07:20:27;98830.41;;;17.40;69.40
59194;BME280;44967;48.598;15.650;2023-06-24T07:22:53;98833.91;;;17.42;69.90
59194;BME280;44967;48.598;15.650;2023-06-24T07:25:19;98833.25;;;17.54;69.69
59194;BME280;44967;48.598;15.650;2023-06-24T07:27:44;98835.16;;;17.52;70.05
59194;BME280;44967;48.598;15.650;2023-06-24T07:30:10;98837.03;;;17.50;69.40
59194;BME280;44967;48.598;15.650;2023-06-24T07:32:36;98837.03;;;17.50;69.71
59194;BME280;44967;48.598;15.650;2023-06-24T07:35:02;98850.91;;;17.58;69.12
59194;BME280;44967;48.598;15.650;2023-06-24T07:37:28;98854.19;;;17.46;70.42
59194;BME280;44967;48.598;15.650;2023-06-24T07:39:53;98849.47;;;17.51;70.02
59194;BME280;44967;48.598;15.650;2023-06-24T07:42:19;98861.00;;;17.52;70.06
59194;BME280;44967;48.598;15.650;2023-06-24T07:44:45;98864.63;;;17.51;70.09
59194;BME280;44967;48.598;15.650;2023-06-24T07:47:11;98870.34;;;17.43;70.84
59194;BME280;44967;48.598;15.650;2023-06-24T07:49:37;98865.97;;;17.42;71.19
59194;BME280;44967;48.598;15.650;2023-06-24T07:52:03;98870.78;;;17.53;70.84
59194;BME280;44967;48.598;15.650;2023-06-24T07:54:30;98873.81;;;17.45;70.78
59194;BME280;44967;48.598;15.650;2023-06-24T07:56:56;98875.06;;;17.38;71.35
59194;BME280;44967;48.598;15.650;2023-06-24T07:59:22;98879.16;;;17.45;70.91
59194;BME280;44967;48.598;15.650;2023-06-24T08:01:48;98888.34;;;17.39;71.26
59194;BME280;44967;48.598;15.650;2023-06-24T08:04:14;98895.34;;;17.42;71.29
59194;BME280;44967;48.598;15.650;2023-06-24T08:06:40;98897.28;;;17.38;71.32
59194;BME280;44967;48.598;15.650;2023-06-24T08:09:06;98901.31;;;17.47;71.51
59194;BME280;44967;48.598;15.650;2023-06-24T08:11:32;98903.28;;;17.43;71.29
59194;BME280;44967;48.598;15.650;2023-06-24T08:13:57;98906.97;;;17.41;71.45
59194;BME280;44967;48.598;15.650;2023-06-24T08:16:23;98905.38;;;17.37;71.85
59194;BME280;44967;48.598;15.650;2023-06-24T08:18:49;98904.88;;;17.48;71.62
59194;BME280;44967;48.598;15.650;2023-06-24T08:21:15;98910.84;;;17.53;71.26
59194;BME280;44967;48.598;15.650;2023-06-24T08:23:40;98911.44;;;17.59;71.57
59194;BME280;44967;48.598;15.650;2023-06-24T08:26:06;98905.94;;;17.43;71.67
59194;BME280;44967;48.598;15.650;2023-06-24T08:28:33;98906.69;;;17.28;72.66
59194;BME280;44967;48.598;15.650;2023-06-24T08:30:59;98904.09;;;17.46;72.51
59194;BME280;44967;48.598;15.650;2023-06-24T08:33:24;98911.22;;;17.45;72.59
59194;BME280;44967;48.598;15.650;2023-06-24T08:35:50;98905.81;;;17.28;72.90
59194;BME280;44967;48.598;15.650;2023-06-24T08:38:16;98908.72;;;17.42;73.33
59194;BME280;44967;48.598;15.650;2023-06-24T08:40:41;98908.13;;;17.35;73.79
59194;BME280;44967;48.598;15.650;2023-06-24T08:43:09;98910.72;;;17.37;72.84
59194;BME280;44967;48.598;15.650;2023-06-24T08:45:34;98916.81;;;17.22;73.79
59194;BME280;44967;48.598;15.650;2023-06-24T08:48:00;98915.56;;;17.29;73.04
59194;BME280;44967;48.598;15.650;2023-06-24T08:50:33;98921.84;;;17.28;73.28
59194;BME280;44967;48.598;15.650;2023-06-24T08:53:03;98921.56;;;17.34;72.35
59194;BME280;44967;48.598;15.650;2023-06-24T08:55:32;98923.25;;;17.18;72.13
59194;BME280;44967;48.598;15.650;2023-06-24T08:57:59;98920.09;;;17.27;72.36
59194;BME280;44967;48.598;15.650;2023-06-24T09:00:26;98917.94;;;17.35;72.05
59194;BME280;44967;48.598;15.650;2023-06-24T09:02:52;98918.25;;;17.29;72.36
59194;BME280;44967;48.598;15.650;2023-06-24T09:05:18;98906.75;;;17.46;71.88
59194;BME280;44967;48.598;15.650;2023-06-24T09:07:43;98914.47;;;17.52;70.59
59194;BME280;44967;48.598;15.650;2023-06-24T09:10:09;98911.28;;;17.62;70.37
59194;BME280;44967;48.598;15.650;2023-06-24T09:12:35;98907.84;;;17.60;71.00
59194;BME280;44967;48.598;15.650;2023-06-24T09:15:02;98902.38;;;17.80;70.32
59194;BME280;44967;48.598;15.650;2023-06-24T09:17:28;98916.06;;;17.92;70.36
59194;BME280;44967;48.598;15.650;2023-06-24T09:20:03;98901.31;;;18.19;68.93
59194;BME280;44967;48.598;15.650;2023-06-24T09:22:30;98906.66;;;18.53;68.36
59194;BME280;44967;48.598;15.650;2023-06-24T09:24:56;98908.22;;;18.90;67.57
59194;BME280;44967;48.598;15.650;2023-06-24T09:27:21;98909.56;;;19.14;66.32
59194;BME280;44967;48.598;15.650;2023-06-24T09:29:49;98900.25;;;19.68;65.21
59194;BME280;44967;48.598;15.650;2023-06-24T09:32:15;98896.25;;;19.75;63.22
59194;BME280;44967;48.598;15.650;2023-06-24T09:34:41;98892.53;;;19.94;62.94
59194;BME280;44967;48.598;15.650;2023-06-24T09:37:06;98901.28;;;20.11;63.32
59194;BME280;44967;48.598;15.650;2023-06-24T09:39:39;98892.94;;;20.32;62.09
59194;BME280;44967;48.598;15.650;2023-06-24T09:42:06;98897.88;;;20.23;63.77
59194;BME280;44967;48.598;15.650;2023-06-24T09:44:33;98891.06;;;20.18;63.17
59194;BME280;44967;48.598;15.650;2023-06-24T09:46:59;98891.50;;;20.26;63.03
59194;BME280;44967;48.598;15.650;2023-06-24T09:49:24;98901.69;;;20.19;62.80
59194;BME280;44967;48.598;15.650;2023-06-24T09:51:57;98901.88;;;20.02;63.08
59194;BME280;44967;48.598;15.650;2023-06-24T09:54:26;98911.53;;;20.05;63.71
59194;BME280;44967;48.598;15.650;2023-06-24T09:56:53;98909.25;;;19.83;63.57
59194;BME280;44967;48.598;15.650;2023-06-24T09:59:20;98908.13;;;19.71;65.08
59194;BME280;44967;48.598;15.650;2023-06-24T10:01:47;98908.84;;;19.75;64.49
59194;BME280;44967;48.598;15.650;2023-06-24T10:04:19;98907.53;;;19.66;64.10
59194;BME280;44967;48.598;15.650;2023-06-24T10:06:45;98901.06;;;19.55;64.79
59194;BME280;44967;48.598;15.650;2023-06-24T10:09:11;98913.06;;;19.48;64.90
59194;BME280;44967;48.598;15.650;2023-06-24T10:11:39;98912.72;;;19.38;65.19
59194;BME280;44967;48.598;15.650;2023-06-24T10:14:05;98908.84;;;19.59;65.12
59194;BME280;44967;48.598;15.650;2023-06-24T10:16:31;98909.69;;;19.44;65.56
59194;BME280;44967;48.598;15.650;2023-06-24T10:19:01;98907.31;;;19.55;65.11
59194;BME280;44967;48.598;15.650;2023-06-24T10:21:45;98910.66;;;19.43;64.78
59194;BME280;44967;48.598;15.650;2023-06-24T10:29:36;98909.22;;;19.20;63.99
59194;BME280;44967;48.598;15.650;2023-06-24T10:32:04;98915.81;;;19.30;63.51
59194;BME280;44967;48.598;15.650;2023-06-24T10:34:54;98908.72;;;19.29;62.37
59194;BME280;44967;48.598;15.650;2023-06-24T10:37:25;98910.66;;;19.43;61.01
59194;BME280;44967;48.598;15.650;2023-06-24T10:39:58;98908.94;;;19.42;59.96
59194;BME280;44967;48.598;15.650;2023-06-24T10:42:38;98917.41;;;19.50;59.54
59194;BME280;44967;48.598;15.650;2023-06-24T10:47:41;98894.16;;;19.96;59.10
59194;BME280;44967;48.598;15.650;2023-06-24T10:50:09;98893.44;;;19.79;57.69
59194;BME280;44967;48.598;15.650;2023-06-24T10:52:42;98897.03;;;19.93;58.43
59194;BME280;44967;48.598;15.650;2023-06-24T10:55:09;98887.75;;;19.99;57.77
59194;BME280;44967;48.598;15.650;2023-06-24T10:57:35;98888.41;;;20.18;57.94
59194;BME280;44967;48.598;15.650;2023-06-24T11:00:03;98880.88;;;20.09;56.58
59194;BME280;44967;48.598;15.650;2023-06-24T11:02:29;98893.28;;;19.96;57.58
59194;BME280;44967;48.598;15.650;2023-06-24T11:04:57;98892.00;;;20.03;58.36
59194;BME280;44967;48.598;15.650;2023-06-24T11:07:25;98890.56;;;19.82;58.50
59194;BME280;44967;48.598;15.650;2023-06-24T11:09:52;98891.16;;;19.87;58.04
59194;BME280;44967;48.598;15.650;2023-06-24T11:12:19;98888.81;;;19.81;58.90
59194;BME280;44967;48.598;15.650;2023-06-24T11:14:45;98889.69;;;19.81;60.23
59194;BME280;44967;48.598;15.650;2023-06-24T11:17:11;98884.41;;;19.80;61.56
59194;BME280;44967;48.598;15.650;2023-06-24T11:19:36;98888.75;;;19.82;61.64
59194;BME280;44967;48.598;15.650;2023-06-24T11:22:06;98888.41;;;19.57;63.08
59194;BME280;44967;48.598;15.650;2023-06-24T11:24:32;98892.13;;;19.39;63.31
59194;BME280;44967;48.598;15.650;2023-06-24T11:26:58;98895.41;;;19.28;63.11
59194;BME280;44967;48.598;15.650;2023-06-24T11:29:24;98892.88;;;19.25;63.76
59194;BME280;44967;48.598;15.650;2023-06-24T11:31:50;98893.94;;;19.38;63.89
59194;BME280;44967;48.598;15.650;2023-06-24T11:34:16;98883.88;;;19.43;63.25
59194;BME280;44967;48.598;15.650;2023-06-24T11:36:42;98889.13;;;19.45;62.79
59194;BME280;44967;48.598;15.650;2023-06-24T11:39:19;98886.63;;;19.57;62.19
59194;BME280;44967;48.598;15.650;2023-06-24T11:41:46;98883.94;;;19.57;63.27
59194;BME280;44967;48.598;15.650;2023-06-24T11:44:12;98880.19;;;19.60;63.25
59194;BME280;44967;48.598;15.650;2023-06-24T11:46:38;98885.84;;;19.55;62.58
59194;BME280;44967;48.598;15.650;2023-06-24T11:49:07;98877.53;;;19.44;62.83
59194;BME280;44967;48.598;15.650;2023-06-24T11:51:34;98884.28;;;19.67;62.95
59194;BME280;44967;48.598;15.650;2023-06-24T11:54:03;98881.16;;;19.74;63.84
59194;BME280;44967;48.598;15.650;2023-06-24T11:56:39;98874.81;;;19.75;63.25
59194;BME280;44967;48.598;15.650;2023-06-24T11:59:15;98874.06;;;19.58;63.28
59194;BME280;44967;48.598;15.650;2023-06-24T12:01:52;98872.22;;;19.74;62.86
59194;BME280;44967;48.598;15.650;2023-06-24T12:04:18;98867.31;;;19.66;62.89
59194;BME280;44967;48.598;15.650;2023-06-24T12:06:44;98866.97;;;19.57;64.08
59194;BME280;44967;48.598;15.650;2023-06-24T12:09:10;98864.22;;;19.43;63.74
59194;BME280;44967;48.598;15.650;2023-06-24T12:11:37;98864.81;;;19.48;64.35
59194;BME280;44967;48.598;15.650;2023-06-24T12:14:02;98867.91;;;19.71;64.41
59194;BME280;44967;48.598;15.650;2023-06-24T12:16:29;98857.50;;;19.81;63.76
59194;BME280;44967;48.598;15.650;2023-06-24T12:18:55;98861.81;;;19.84;63.55
59194;BME280;44967;48.598;15.650;2023-06-24T12:21:21;98858.69;;;19.91;63.40
59194;BME280;44967;48.598;15.650;2023-06-24T12:23:47;98854.81;;;19.81;63.02
59194;BME280;44967;48.598;15.650;2023-06-24T12:26:13;98862.41;;;19.89;63.21
59194;BME280;44967;48.598;15.650;2023-06-24T12:28:39;98864.75;;;19.95;63.29
59194;BME280;44967;48.598;15.650;2023-06-24T12:31:04;98858.28;;;19.83;62.89
59194;BME280;44967;48.598;15.650;2023-06-24T12:33:30;98858.53;;;19.94;63.07
59194;BME280;44967;48.598;15.650;2023-06-24T12:35:56;98856.50;;;19.98;62.58
59194;BME280;44967;48.598;15.650;2023-06-24T12:38:22;98846.13;;;20.21;62.20
59194;BME280;44967;48.598;15.650;2023-06-24T12:40:47;98851.66;;;20.34;61.81
59194;BME280;44967;48.598;15.650;2023-06-24T12:43:14;98849.75;;;20.64;60.88
59194;BME280;44967;48.598;15.650;2023-06-24T12:45:40;98849.16;;;20.88;61.11
59194;BME280;44967;48.598;15.650;2023-06-24T12:48:09;98850.66;;;21.06;60.70
59194;BME280;44967;48.598;15.650;2023-06-24T12:50:39;98848.94;;;21.33;60.17
59194;BME280;44967;48.598;15.650;2023-06-24T12:53:04;98850.66;;;21.34;59.39
59194;BME280;44967;48.598;15.650;2023-06-24T12:55:30;98843.00;;;21.28;59.24
59194;BME280;44967;48.598;15.650;2023-06-24T12:57:56;98843.44;;;21.49;58.63
59194;BME280;44967;48.598;15.650;2023-06-24T13:00:24;98839.72;;;21.64;58.59
59194;BME280;44967;48.598;15.650;2023-06-24T13:02:50;98846.66;;;21.54;58.84
59194;BME280;44967;48.598;15.650;2023-06-24T13:05:17;98836.75;;;21.54;58.91